Hundvaag 1 weather for Jun 1992
Month no. 60
Obs.
Da.
Temp. Dew Point Precip. Wind
Speed
Wind gusts Cloud cover Press. Humidity Wind dir. Sunny OPT
01.06.1992 18,1   0,0             1  
02.06.1992 18,9   0,0             1  
03.06.1992 21,3   0,0             1  
04.06.1992 14,3   0,0                
05.06.1992 16,8   0,1             1  
06.06.1992 20,4   0,0             1  
07.06.1992 18,8   8,0             1  
08.06.1992 19,0   0,5             1  
09.06.1992 18,4   1,1             1  
10.06.1992 17,8   0,0             1  
11.06.1992 18,2   0,0             1  
12.06.1992 17,8   0,0             1  
13.06.1992 11,8   22,0             1  
14.06.1992 13,3   12,1             1  
15.06.1992 15,3   6,6                
16.06.1992 11,0   1,0                
17.06.1992 12,5   0,0                
18.06.1992 10,9   0,0             1  
19.06.1992 17,1   0,2                
20.06.1992 13,7   0,0             1  
21.06.1992 11,8   1,5                
22.06.1992 8,8   1,4                
23.06.1992 12,7   0,0                
24.06.1992 15,2   0,0             1  
25.06.1992 16,3   0,0             1  
26.06.1992 16,3   0,0             1  
27.06.1992 19,0   0,0             1  
28.06.1992 12,3   3,8                
29.06.1992 13,5   6,4                
30.06.1992 13,5   0,0                
                       
Avrg/Sum 15,5   64,7             19